Milton, PA (17847)

08:45 AM EDT del 31 Ottobre 2014 (GMT -0400)
Windsor at Lewisburg | Change Station
CLOSE
Current Station
Stazione meteo personale
Location: Lewisburg, PA
Altitudine: 545 ft
Stazioni meteo nelle vicinanze

Alt. 545 ft 40.94 °N, 76.89 °W | Updated 8 seconds ago

Coperto
Coperto
42.4 °F
Sembra 42 °F
N
0.0
Vento Variabile Vento da NNE
Gusts 0.0 mph

Oggi
Massima -- | Minima -- °F
--% Possibilità di precip.
Ieri
Massima -- | Minima -- °F
Precip. -- in
7:37 AM 6:04 PM
Primo quarto, 55% visible
Pressione 30.03 in
Visibilità 10.0 miglia
Nuvole Coperto 5500 ft
Raffreddamento del vento 42 °F
Punto di rugiada 34 °F
Umidità 73%
Piovosità -999.00 in
Spessore del manto nevoso Non disponibile.
Raggi UV 0 fuori da 12
Polline .10 fuori da 12
Qualità dell'aria Non disponibile.
Flu Activity Non disponibile.
METAR KSEG 311153Z AUTO 00000KT 10SM OVC055 05/03 A3002 RMK AO2 SLP167 T00500028 10050 20022 58001

More Conditions Fewer Conditions

Pressione 30.03 in
Visibilità 10.0 miglia
Nuvole Coperto 5500 ft
Raffreddamento del vento 42 °F
Punto di rugiada 34 °F
Umidità 73%
Piovosità -999.00 in
Spessore del manto nevoso Non disponibile.
Raggi UV 0 fuori da 12
Polline .10 fuori da 12
Qualità dell'aria Non disponibile.
Flu Activity Non disponibile.
METAR KSEG 311153Z AUTO 00000KT 10SM OVC055 05/03 A3002 RMK AO2 SLP167 T00500028 10050 20022 58001

More Conditions Fewer Conditions

10-Day Weather Forecast

Almanac

Astronomia

Oct. 31, 2014 Alba Tramonto
Ora attuale
Crepuscolo civile
Crepuscolo nautico
Crepuscolo astronomico
Luna
Estensione della luce visibile
Lunghezza del giorno
Tomorrow will be .
, % of the Moon is Illuminated

Gli estremi di oggi

State Highs State Lows

Community

WunderPhotos

Upload Photos

1,766,593 foto caricate!

WunderBlogs® & News

Nearby

Qualità dell'aria

  Qualità dell'aria Indice AQ Inquinante
Not available.

Profondità neve

Stazione Profondità Altitudine

Attività sismica

Città  Distanza Mag. Data & Ora
Minimo Magnitudo Mostrato è 2.5.

Temperature delle acque costiere

Località Temperatura

Stazioni meteo nelle vicinanze